createdAt,value
2023-04-18T00:01:58.535Z,8.50
2023-04-18T00:06:52.875Z,8.50
2023-04-18T00:21:37.316Z,8.60
2023-04-18T00:24:04.195Z,8.60
2023-04-18T00:26:31.009Z,8.60
2023-04-18T00:33:52.449Z,8.60
2023-04-18T00:43:40.722Z,8.60
2023-04-18T00:48:34.905Z,8.60
2023-04-18T00:53:29.309Z,8.60
2023-04-18T00:58:24.056Z,8.60
2023-04-18T01:03:18.882Z,8.50
2023-04-18T01:10:40.756Z,8.50
2023-04-18T01:13:14.618Z,8.40
2023-04-18T01:15:46.156Z,8.40
2023-04-18T01:18:13.895Z,8.40
2023-04-18T01:20:45.809Z,8.40
2023-04-18T01:23:12.791Z,8.40
2023-04-18T01:25:39.741Z,8.40
2023-04-18T01:28:07.223Z,8.40
2023-04-18T01:30:34.446Z,8.40
2023-04-18T01:33:03.144Z,8.30
2023-04-18T01:35:30.522Z,8.30
2023-04-18T01:37:57.898Z,8.30
2023-04-18T01:40:25.206Z,8.30
2023-04-18T01:42:52.223Z,8.20
2023-04-18T01:47:47.161Z,8.20
2023-04-18T01:50:14.488Z,8.20
2023-04-18T01:52:41.343Z,8.20
2023-04-18T01:55:08.608Z,8.10
2023-04-18T01:57:38.305Z,8.10
2023-04-18T02:00:06.949Z,8.10
2023-04-18T02:05:01.377Z,8.00
2023-04-18T02:07:28.169Z,8.00
2023-04-18T02:14:53.408Z,7.90
2023-04-18T02:17:25.668Z,7.90
2023-04-18T02:19:52.385Z,7.90
2023-04-18T02:24:46.418Z,7.90
2023-04-18T02:29:40.542Z,7.90
2023-04-18T02:34:36.595Z,7.80
2023-04-18T02:37:04.155Z,7.80
2023-04-18T02:41:58.757Z,7.70
2023-04-18T03:04:04.957Z,7.70
2023-04-18T03:06:31.852Z,7.80
2023-04-18T03:08:58.688Z,7.70
2023-04-18T03:11:25.360Z,7.70
2023-04-18T03:13:52.098Z,7.70
2023-04-18T03:16:18.916Z,7.70
2023-04-18T03:18:45.748Z,7.70
2023-04-18T03:21:12.561Z,7.70
2023-04-18T03:23:39.266Z,7.70
2023-04-18T03:26:07.502Z,7.70
2023-04-18T03:28:34.440Z,7.60
2023-04-18T03:31:01.298Z,7.60
2023-04-18T03:33:28.802Z,7.70
2023-04-18T03:35:55.613Z,7.60
2023-04-18T03:38:22.458Z,7.60
2023-04-18T03:40:49.328Z,7.50
2023-04-18T03:43:16.185Z,7.50
2023-04-18T03:45:44.195Z,7.50
2023-04-18T03:48:11.088Z,7.50
2023-04-18T03:50:37.778Z,7.50
2023-04-18T03:53:04.506Z,7.50
2023-04-18T03:55:31.369Z,7.50
2023-04-18T03:57:59.156Z,7.50
2023-04-18T04:00:26.403Z,7.50
2023-04-18T04:02:53.300Z,7.40
2023-04-18T04:05:20.171Z,7.40
2023-04-18T04:07:47.190Z,7.40
2023-04-18T04:10:13.922Z,7.30
2023-04-18T04:12:40.574Z,7.30
2023-04-18T04:15:07.743Z,7.20
2023-04-18T04:20:02.157Z,7.10
2023-04-18T04:22:28.817Z,7.10
2023-04-18T04:24:57.820Z,7.10
2023-04-18T04:27:25.104Z,7.20
2023-04-18T04:29:54.685Z,7.20
2023-04-18T04:32:21.657Z,7.20
2023-04-18T04:34:49.396Z,7.20
2023-04-18T04:37:18.650Z,7.20
2023-04-18T04:39:46.267Z,7.10
2023-04-18T04:42:13.347Z,7.10
2023-04-18T04:44:41.685Z,7.10
2023-04-18T04:47:08.545Z,7.10
2023-04-18T04:49:35.555Z,7.10
2023-04-18T04:52:03.047Z,7.20
2023-04-18T04:54:30.357Z,7.10
2023-04-18T04:56:57.229Z,7.10
2023-04-18T04:59:24.017Z,7.10
2023-04-18T05:01:51.011Z,7.20
2023-04-18T05:04:18.558Z,7.20
2023-04-18T05:06:46.171Z,7.20
2023-04-18T05:09:13.469Z,7.20
2023-04-18T05:11:40.310Z,7.20
2023-04-18T05:14:07.272Z,7.20
2023-04-18T05:16:34.103Z,7.10
2023-04-18T05:19:00.956Z,7.10
2023-04-18T05:21:28.715Z,7.10
2023-04-18T05:23:56.310Z,7.10
2023-04-18T05:26:23.312Z,7.10
2023-04-18T05:28:50.511Z,7.20
2023-04-18T05:31:17.344Z,7.20
2023-04-18T05:33:44.219Z,7.10
2023-04-18T05:38:38.179Z,7.10
2023-04-18T05:41:05.014Z,7.20
2023-04-18T05:43:31.834Z,7.10
2023-04-18T05:45:58.570Z,7.10
2023-04-18T05:50:52.541Z,7.00
2023-04-18T05:53:19.297Z,7.10
2023-04-18T05:55:48.589Z,7.10
2023-04-18T05:58:15.795Z,7.20
2023-04-18T06:00:43.091Z,7.20
2023-04-18T06:03:11.192Z,7.20
2023-04-18T06:05:38.578Z,7.20
2023-04-18T06:08:05.990Z,7.20
2023-04-18T06:10:33.110Z,7.20
2023-04-18T06:12:59.791Z,7.20
2023-04-18T06:15:26.472Z,7.20
2023-04-18T06:17:53.296Z,7.20
2023-04-18T06:20:20.201Z,7.30
2023-04-18T06:22:46.953Z,7.30
2023-04-18T06:25:13.786Z,7.30
2023-04-18T06:27:40.571Z,7.30
2023-04-18T06:30:08.253Z,7.30
2023-04-18T06:32:35.248Z,7.30
2023-04-18T06:35:03.692Z,7.30
2023-04-18T06:37:30.545Z,7.30
2023-04-18T06:39:57.246Z,7.40
2023-04-18T06:42:24.024Z,7.40
2023-04-18T06:44:51.134Z,7.50
2023-04-18T06:49:45.113Z,7.50
2023-04-18T06:52:11.884Z,7.60
2023-04-18T06:54:38.583Z,7.60
2023-04-18T06:57:05.496Z,7.60
2023-04-18T06:59:32.231Z,7.60
2023-04-18T07:01:58.981Z,7.60
2023-04-18T07:04:25.867Z,7.70
2023-04-18T07:06:52.748Z,7.70
2023-04-18T07:09:20.056Z,7.80
2023-04-18T07:11:46.812Z,7.90
2023-04-18T07:14:13.749Z,7.90
2023-04-18T07:16:40.723Z,7.90
2023-04-18T07:19:07.487Z,7.90
2023-04-18T07:21:34.195Z,8.00
2023-04-18T07:24:00.873Z,8.10
2023-04-18T07:26:27.712Z,8.10
2023-04-18T07:28:54.443Z,8.20
2023-04-18T07:31:21.262Z,8.20
2023-04-18T07:33:48.178Z,8.20
2023-04-18T07:36:14.933Z,8.20
2023-04-18T07:38:41.817Z,8.10
2023-04-18T07:41:08.527Z,8.10
2023-04-18T07:43:35.918Z,8.20
2023-04-18T07:46:02.812Z,8.20
2023-04-18T07:48:29.577Z,8.20
2023-04-18T07:50:56.255Z,8.20
2023-04-18T07:53:23.016Z,8.30
2023-04-18T07:55:50.188Z,8.50
2023-04-18T07:58:17.561Z,8.60
2023-04-18T08:00:44.907Z,8.60
2023-04-18T08:03:13.069Z,8.60
2023-04-18T08:05:41.778Z,8.50
2023-04-18T08:08:10.200Z,8.50
2023-04-18T08:10:37.539Z,8.50
2023-04-18T08:13:04.637Z,8.40
2023-04-18T08:15:32.724Z,8.40
2023-04-18T08:18:00.552Z,8.40
2023-04-18T08:20:27.651Z,8.30
2023-04-18T08:23:05.661Z,8.40
2023-04-18T08:25:33.546Z,8.50
2023-04-18T08:28:00.449Z,8.40
2023-04-18T08:30:27.318Z,8.50
2023-04-18T08:32:54.215Z,8.50
2023-04-18T08:35:21.207Z,8.60
2023-04-18T08:40:15.102Z,8.70
2023-04-18T08:42:44.797Z,8.60
2023-04-18T08:45:16.587Z,8.70
2023-04-18T08:47:43.410Z,8.80
2023-04-18T08:50:10.809Z,8.90
2023-04-18T08:52:40.119Z,8.90
2023-04-18T08:55:07.623Z,8.90
2023-04-18T08:57:36.197Z,8.90
2023-04-18T09:00:09.958Z,9.00
2023-04-18T09:02:45.216Z,9.20
2023-04-18T09:05:19.758Z,9.30
2023-04-18T09:07:51.471Z,9.40
2023-04-18T09:10:36.570Z,9.60
2023-04-18T09:13:04.293Z,9.90
2023-04-18T09:15:31.339Z,10.10
2023-04-18T09:18:00.475Z,10.50
2023-04-18T09:20:41.114Z,10.60
2023-04-18T09:23:14.681Z,10.60
2023-04-18T09:25:44.580Z,10.80
2023-04-18T09:28:29.804Z,10.90
2023-04-18T09:30:58.841Z,10.90
2023-04-18T09:33:28.265Z,10.90
2023-04-18T09:35:57.069Z,11.00
2023-04-18T09:38:40.425Z,11.20
2023-04-18T09:41:09.019Z,11.10
2023-04-18T09:46:04.465Z,11.00
2023-04-18T09:48:31.427Z,11.20
2023-04-18T09:51:01.579Z,11.20
2023-04-18T09:53:29.838Z,11.50
2023-04-18T09:55:57.904Z,11.80
2023-04-18T09:58:28.516Z,12.10
2023-04-18T10:00:56.336Z,12.10
2023-04-18T10:03:32.667Z,12.10
2023-04-18T10:05:59.554Z,12.00
2023-04-18T10:08:27.242Z,11.90
2023-04-18T10:10:55.960Z,12.00
2023-04-18T10:13:23.896Z,12.00
2023-04-18T10:15:52.381Z,12.10
2023-04-18T10:18:23.384Z,12.40
2023-04-18T10:20:50.202Z,12.60
2023-04-18T10:23:32.297Z,12.70
2023-04-18T10:25:59.491Z,12.60
2023-04-18T10:28:27.705Z,12.50
2023-04-18T10:31:02.862Z,12.40
2023-04-18T10:33:35.603Z,12.50
2023-04-18T10:36:08.957Z,12.60
2023-04-18T10:38:38.838Z,12.60
2023-04-18T10:41:32.931Z,12.50
2023-04-18T10:44:09.076Z,12.30
2023-04-18T10:46:40.016Z,12.00
2023-04-18T10:49:26.272Z,12.00
2023-04-18T10:51:54.697Z,12.00
2023-04-18T10:54:47.865Z,12.10
2023-04-18T10:57:15.257Z,12.10
2023-04-18T10:59:43.751Z,12.30
2023-04-18T11:02:25.848Z,12.90
2023-04-18T11:04:57.730Z,13.40
2023-04-18T11:07:34.238Z,13.80
2023-04-18T11:10:02.055Z,14.10
2023-04-18T11:12:34.170Z,14.30
2023-04-18T11:15:04.128Z,14.50
2023-04-18T11:17:32.845Z,14.50
2023-04-18T11:20:01.734Z,14.50
2023-04-18T11:22:28.610Z,14.70
2023-04-18T11:25:00.085Z,14.80
2023-04-18T11:27:27.025Z,15.00
2023-04-18T11:29:54.997Z,14.90
2023-04-18T11:32:24.389Z,14.50
2023-04-18T11:34:53.355Z,14.50
2023-04-18T11:37:20.618Z,14.10
2023-04-18T11:39:47.786Z,13.90
2023-04-18T11:42:14.766Z,13.70
2023-04-18T11:44:46.060Z,14.00
2023-04-18T11:47:43.228Z,13.90
2023-04-18T11:50:12.683Z,14.10
2023-04-18T11:52:42.753Z,14.40
2023-04-18T11:55:13.696Z,14.40
2023-04-18T11:57:41.779Z,14.40
2023-04-18T12:00:10.116Z,14.20
2023-04-18T12:02:43.293Z,13.90
2023-04-18T12:05:11.959Z,13.70
2023-04-18T12:07:39.962Z,13.50
2023-04-18T12:10:23.412Z,13.50
2023-04-18T12:12:52.115Z,13.60
2023-04-18T12:15:19.964Z,13.50
2023-04-18T12:17:48.600Z,13.40
2023-04-18T12:20:16.139Z,13.40
2023-04-18T12:22:49.495Z,13.30
2023-04-18T12:25:27.290Z,13.10
2023-04-18T12:28:03.576Z,13.10
2023-04-18T12:30:37.372Z,13.20
2023-04-18T12:33:04.934Z,13.30
2023-04-18T12:35:32.227Z,13.40
2023-04-18T12:38:00.894Z,13.50
2023-04-18T12:40:28.793Z,13.60
2023-04-18T12:42:56.392Z,13.60
2023-04-18T12:45:23.731Z,13.80
2023-04-18T12:47:52.315Z,14.40
2023-04-18T12:50:21.307Z,14.30
2023-04-18T12:52:48.377Z,14.40
2023-04-18T12:55:15.787Z,14.30
2023-04-18T12:57:42.949Z,14.50
2023-04-18T13:00:11.400Z,14.60
2023-04-18T13:02:40.302Z,14.60
2023-04-18T13:05:11.764Z,14.70
2023-04-18T13:07:40.540Z,14.50
2023-04-18T13:10:12.478Z,14.70
2023-04-18T13:12:40.679Z,14.90
2023-04-18T13:15:11.014Z,15.10
2023-04-18T13:17:41.304Z,15.20
2023-04-18T13:20:13.026Z,14.90
2023-04-18T13:22:41.268Z,14.60
2023-04-18T13:25:10.616Z,14.40
2023-04-18T13:27:40.916Z,14.10
2023-04-18T13:30:10.605Z,14.00
2023-04-18T13:32:39.159Z,13.90
2023-04-18T13:35:09.097Z,13.80
2023-04-18T13:37:36.722Z,13.90
2023-04-18T13:40:07.961Z,13.80
2023-04-18T13:42:37.368Z,13.70
2023-04-18T13:45:04.450Z,13.70
2023-04-18T13:47:31.397Z,13.90
2023-04-18T13:49:58.438Z,14.10
2023-04-18T13:52:25.855Z,14.00
2023-04-18T13:54:52.854Z,13.80
2023-04-18T13:57:19.723Z,14.00
2023-04-18T13:59:46.812Z,14.20
2023-04-18T14:02:13.934Z,14.20
2023-04-18T14:04:40.982Z,14.10
2023-04-18T14:07:08.109Z,14.00
2023-04-18T14:09:35.043Z,14.00
2023-04-18T14:12:02.137Z,14.20
2023-04-18T14:14:29.243Z,14.20
2023-04-18T14:16:56.025Z,14.10
2023-04-18T14:19:22.826Z,13.90
2023-04-18T14:21:49.552Z,13.70
2023-04-18T14:24:16.542Z,13.50
2023-04-18T14:26:43.976Z,13.50
2023-04-18T14:29:11.150Z,13.40
2023-04-18T14:31:38.169Z,13.30
2023-04-18T14:34:05.638Z,13.30
2023-04-18T14:36:32.728Z,13.30
2023-04-18T14:38:59.558Z,13.30
2023-04-18T14:41:26.459Z,13.50
2023-04-18T14:43:53.327Z,13.70
2023-04-18T14:46:21.461Z,13.70
2023-04-18T14:48:48.289Z,13.80
2023-04-18T14:51:16.484Z,13.70
2023-04-18T14:53:44.246Z,13.60
2023-04-18T14:58:38.203Z,13.70
2023-04-18T15:01:05.319Z,13.80
2023-04-18T15:03:32.404Z,13.80
2023-04-18T15:08:26.813Z,14.10
2023-04-18T15:10:53.781Z,14.10
2023-04-18T15:13:20.698Z,14.20
2023-04-18T15:15:56.921Z,14.40
2023-04-18T15:20:51.712Z,14.50
2023-04-18T15:25:47.769Z,14.60
2023-04-18T15:28:14.558Z,14.60
2023-04-18T15:33:08.719Z,14.50
2023-04-18T15:38:02.959Z,14.50
2023-04-18T15:40:29.855Z,14.60
2023-04-18T15:42:57.830Z,14.60
2023-04-18T15:47:52.673Z,14.50
2023-04-18T15:50:19.649Z,14.50
2023-04-18T15:52:46.442Z,14.50
2023-04-18T15:55:13.611Z,14.40
2023-04-18T15:57:41.736Z,14.30
2023-04-18T16:02:44.153Z,14.30
2023-04-18T16:05:12.430Z,14.30
2023-04-18T16:07:40.433Z,14.30
2023-04-18T16:10:10.180Z,14.20
2023-04-18T16:12:37.896Z,14.10
2023-04-18T16:15:09.458Z,14.20
2023-04-18T16:17:37.479Z,14.20
2023-04-18T16:20:09.026Z,14.20
2023-04-18T16:22:36.741Z,14.20
2023-04-18T16:25:04.703Z,14.10
2023-04-18T16:29:59.029Z,14.10
2023-04-18T16:34:53.208Z,13.90
2023-04-18T16:37:20.316Z,13.80
2023-04-18T16:39:47.275Z,13.80
2023-04-18T16:44:45.988Z,13.80
2023-04-18T16:49:40.636Z,13.80
2023-04-18T16:59:29.557Z,13.60
2023-04-18T17:01:56.559Z,13.50
2023-04-18T17:06:53.877Z,13.50
2023-04-18T17:09:20.707Z,13.40
2023-04-18T17:11:47.389Z,13.40
2023-04-18T17:16:42.623Z,13.30
2023-04-18T17:19:10.311Z,13.20
2023-04-18T17:21:38.115Z,13.10
2023-04-18T17:24:07.014Z,13.20
2023-04-18T17:26:34.924Z,13.20
2023-04-18T17:29:04.024Z,13.10
2023-04-18T17:31:34.135Z,13.00
2023-04-18T17:38:55.859Z,12.80
2023-04-18T17:43:53.478Z,12.70
2023-04-18T17:48:47.726Z,12.70
2023-04-18T17:56:10.847Z,12.60
2023-04-18T17:58:37.607Z,12.60
2023-04-18T18:01:13.378Z,12.50
2023-04-18T18:03:40.594Z,12.50
2023-04-18T18:08:34.692Z,12.40
2023-04-18T18:11:02.882Z,12.40
2023-04-18T18:13:29.706Z,12.40
2023-04-18T18:15:57.579Z,12.30
2023-04-18T18:18:24.610Z,12.30
2023-04-18T18:20:51.603Z,12.30
2023-04-18T18:30:40.103Z,12.10
2023-04-18T18:35:35.030Z,12.00
2023-04-18T18:40:29.038Z,11.90
2023-04-18T18:42:59.087Z,11.90
2023-04-18T18:45:26.047Z,11.90
2023-04-18T18:57:43.033Z,11.70
2023-04-18T19:02:40.464Z,11.70
2023-04-18T19:05:08.098Z,11.70
2023-04-18T19:12:30.360Z,11.70
2023-04-18T19:14:57.242Z,11.70
2023-04-18T19:17:24.870Z,11.80
2023-04-18T19:19:52.663Z,11.80
2023-04-18T19:27:13.878Z,11.80
2023-04-18T19:29:46.752Z,11.90
2023-04-18T19:32:13.555Z,11.90
2023-04-18T19:44:32.391Z,11.90
2023-04-18T19:49:26.371Z,11.90
2023-04-18T19:51:53.226Z,11.90
2023-04-18T19:54:21.882Z,11.90
2023-04-18T19:59:16.432Z,11.90
2023-04-18T20:06:38.105Z,11.80
2023-04-18T20:11:33.401Z,11.90
2023-04-18T20:14:00.683Z,11.90
2023-04-18T20:16:27.940Z,11.90
2023-04-18T20:23:51.822Z,11.80
2023-04-18T20:26:19.400Z,11.80
2023-04-18T20:41:04.195Z,11.80
2023-04-18T20:43:37.226Z,11.80
2023-04-18T20:53:27.071Z,11.80
2023-04-18T20:55:54.285Z,11.80
2023-04-18T21:00:48.916Z,11.70
2023-04-18T21:03:16.284Z,11.70
2023-04-18T21:05:44.024Z,11.70
2023-04-18T21:08:13.876Z,11.70
2023-04-18T21:10:40.673Z,11.70
2023-04-18T21:13:09.168Z,11.60
2023-04-18T21:15:36.304Z,11.60
2023-04-18T21:18:03.170Z,11.60
2023-04-18T21:20:29.950Z,11.60
2023-04-18T21:22:56.730Z,11.50
2023-04-18T21:25:23.409Z,11.60
2023-04-18T21:27:50.849Z,11.50
2023-04-18T21:30:17.789Z,11.40
2023-04-18T21:32:46.062Z,11.40
2023-04-18T21:35:13.130Z,11.50
2023-04-18T21:37:39.829Z,11.40
2023-04-18T21:40:07.430Z,11.40
2023-04-18T21:42:35.423Z,11.40
2023-04-18T21:45:02.415Z,11.40
2023-04-18T21:47:29.186Z,11.40
2023-04-18T21:49:55.949Z,11.40
2023-04-18T21:52:22.841Z,11.40
2023-04-18T21:54:49.631Z,11.30
2023-04-18T21:57:16.403Z,11.30
2023-04-18T21:59:43.128Z,11.20
2023-04-18T22:04:38.134Z,11.20
2023-04-18T22:07:05.028Z,11.10
2023-04-18T22:09:34.364Z,11.20
2023-04-18T22:12:03.665Z,11.00
2023-04-18T22:14:32.227Z,11.00
2023-04-18T22:16:59.113Z,10.90
2023-04-18T22:19:29.414Z,10.90
2023-04-18T22:21:56.452Z,10.90
2023-04-18T22:24:24.583Z,10.90
2023-04-18T22:26:51.594Z,10.80
2023-04-18T22:29:18.329Z,10.80
2023-04-18T22:31:45.347Z,10.80
2023-04-18T22:34:12.167Z,10.80
2023-04-18T22:36:38.991Z,10.80
2023-04-18T22:39:06.293Z,10.70
2023-04-18T22:41:33.096Z,10.70
2023-04-18T22:43:59.837Z,10.60
2023-04-18T22:46:27.224Z,10.60
2023-04-18T22:48:54.260Z,10.60
2023-04-18T22:51:21.035Z,10.60
2023-04-18T22:53:47.738Z,10.50
2023-04-18T22:56:14.519Z,10.50
2023-04-18T22:58:41.212Z,10.50
2023-04-18T23:03:35.368Z,10.40
2023-04-18T23:06:02.153Z,10.30
2023-04-18T23:08:28.969Z,10.20
2023-04-18T23:10:55.842Z,10.30
2023-04-18T23:13:22.909Z,10.30
2023-04-18T23:15:49.788Z,10.20
2023-04-18T23:18:16.555Z,10.10
2023-04-18T23:20:43.250Z,10.10
2023-04-18T23:23:09.953Z,10.10
2023-04-18T23:28:03.991Z,10.10
2023-04-18T23:32:57.886Z,10.00
2023-04-18T23:35:24.639Z,10.00
2023-04-18T23:37:51.367Z,9.90
2023-04-18T23:40:18.213Z,9.90
2023-04-18T23:42:45.029Z,9.90
2023-04-18T23:45:12.103Z,9.90
2023-04-18T23:47:38.858Z,9.80
2023-04-18T23:50:06.131Z,9.80
2023-04-18T23:52:32.837Z,9.80
2023-04-18T23:55:00.764Z,9.80
2023-04-18T23:57:27.764Z,9.80
2023-04-18T23:59:54.424Z,9.80
